createdAt,value
2022-09-27T00:01:17.253Z,14.30
2022-09-27T00:04:03.172Z,14.20
2022-09-27T00:06:48.762Z,14.20
2022-09-27T00:09:34.327Z,14.20
2022-09-27T00:12:20.109Z,14.20
2022-09-27T00:15:07.312Z,14.20
2022-09-27T00:17:53.272Z,14.20
2022-09-27T00:20:39.033Z,14.30
2022-09-27T00:23:24.481Z,14.30
2022-09-27T00:26:13.024Z,14.30
2022-09-27T00:28:58.724Z,14.30
2022-09-27T00:31:44.880Z,14.20
2022-09-27T00:34:30.679Z,14.20
2022-09-27T00:37:16.693Z,14.20
2022-09-27T00:40:02.345Z,14.20
2022-09-27T00:42:48.968Z,14.00
2022-09-27T00:45:34.694Z,14.00
2022-09-27T00:48:25.040Z,14.00
2022-09-27T00:51:11.034Z,14.00
2022-09-27T00:53:58.431Z,14.00
2022-09-27T00:56:44.747Z,14.00
2022-09-27T00:59:33.505Z,14.00
2022-09-27T01:02:19.577Z,14.00
2022-09-27T01:05:10.072Z,14.00
2022-09-27T01:08:00.837Z,14.00
2022-09-27T01:11:10.316Z,14.00
2022-09-27T01:14:09.413Z,14.00
2022-09-27T01:17:19.695Z,14.00
2022-09-27T01:20:24.164Z,14.00
2022-09-27T01:23:48.911Z,14.00
2022-09-27T01:26:47.423Z,14.00
2022-09-27T01:29:48.239Z,14.00
2022-09-27T01:33:05.929Z,14.00
2022-09-27T01:36:08.079Z,14.00
2022-09-27T01:39:12.505Z,14.00
2022-09-27T01:42:25.885Z,13.90
2022-09-27T01:45:21.755Z,14.00
2022-09-27T01:48:26.064Z,14.00
2022-09-27T01:51:34.036Z,14.00
2022-09-27T01:54:25.444Z,14.00
2022-09-27T01:57:41.633Z,14.00
2022-09-27T02:00:35.273Z,14.00
2022-09-27T02:03:30.225Z,14.00
2022-09-27T02:06:40.160Z,14.00
2022-09-27T02:09:42.697Z,14.00
2022-09-27T02:12:51.624Z,14.00
2022-09-27T02:15:56.586Z,13.90
2022-09-27T02:19:03.208Z,13.90
2022-09-27T02:22:16.857Z,13.90
2022-09-27T02:25:10.617Z,13.90
2022-09-27T02:27:56.560Z,13.90
2022-09-27T02:30:46.188Z,13.90
2022-09-27T02:33:50.697Z,13.90
2022-09-27T02:36:36.988Z,13.90
2022-09-27T02:39:24.624Z,13.90
2022-09-27T02:42:19.297Z,14.00
2022-09-27T02:45:06.302Z,13.90
2022-09-27T02:48:09.644Z,14.00
2022-09-27T02:51:10.513Z,13.90
2022-09-27T02:54:17.439Z,13.90
2022-09-27T02:57:43.180Z,13.90
2022-09-27T03:00:50.860Z,14.00
2022-09-27T03:04:14.211Z,13.90
2022-09-27T03:07:01.737Z,13.90
2022-09-27T03:09:50.878Z,13.90
2022-09-27T03:12:36.351Z,13.90
2022-09-27T03:15:22.426Z,13.90
2022-09-27T03:18:20.231Z,13.90
2022-09-27T03:21:29.282Z,13.90
2022-09-27T03:24:15.117Z,13.90
2022-09-27T03:27:00.642Z,15.20
2022-09-27T03:29:46.164Z,13.90
2022-09-27T03:32:31.780Z,13.90
2022-09-27T03:35:44.053Z,13.80
2022-09-27T03:38:29.977Z,13.90
2022-09-27T03:41:15.492Z,13.80
2022-09-27T03:44:01.573Z,13.80
2022-09-27T03:46:47.538Z,13.80
2022-09-27T03:49:33.928Z,13.80
2022-09-27T03:52:19.954Z,13.80
2022-09-27T03:55:06.005Z,13.80
2022-09-27T03:57:52.079Z,13.80
2022-09-27T04:00:38.148Z,13.70
2022-09-27T04:03:23.666Z,13.70
2022-09-27T04:06:29.672Z,13.70
2022-09-27T04:09:15.604Z,13.70
2022-09-27T04:12:20.089Z,13.60
2022-09-27T04:15:06.141Z,13.70
2022-09-27T04:18:17.743Z,13.60
2022-09-27T04:21:15.492Z,13.50
2022-09-27T04:24:07.127Z,13.50
2022-09-27T04:26:54.238Z,13.50
2022-09-27T04:29:45.784Z,13.50
2022-09-27T04:32:51.296Z,13.50
2022-09-27T04:36:21.955Z,13.70
2022-09-27T04:39:24.424Z,14.10
2022-09-27T04:42:09.948Z,14.50
2022-09-27T04:44:55.655Z,14.70
2022-09-27T04:47:48.505Z,14.80
2022-09-27T04:50:36.453Z,15.00
2022-09-27T04:53:22.301Z,15.10
2022-09-27T04:56:08.010Z,15.20
2022-09-27T04:58:54.509Z,15.30
2022-09-27T05:01:41.138Z,15.40
2022-09-27T05:04:58.072Z,15.50
2022-09-27T05:07:44.171Z,15.60
2022-09-27T05:10:42.251Z,15.60
2022-09-27T05:13:28.101Z,15.60
2022-09-27T05:16:13.776Z,15.70
2022-09-27T05:19:18.101Z,15.70
2022-09-27T05:22:32.904Z,15.70
2022-09-27T05:25:19.350Z,15.80
2022-09-27T05:28:05.507Z,15.80
2022-09-27T05:30:51.231Z,15.80
2022-09-27T05:33:41.085Z,15.80
2022-09-27T05:36:50.387Z,15.80
2022-09-27T05:39:36.228Z,15.90
2022-09-27T05:42:22.676Z,16.00
2022-09-27T05:45:08.928Z,16.00
2022-09-27T05:47:57.113Z,15.90
2022-09-27T05:50:43.110Z,15.90
2022-09-27T05:53:29.388Z,16.00
2022-09-27T05:56:15.160Z,16.00
2022-09-27T05:59:21.057Z,16.00
2022-09-27T06:02:25.486Z,16.00
2022-09-27T06:05:11.138Z,16.00
2022-09-27T06:08:21.918Z,16.00
2022-09-27T06:11:13.632Z,16.00
2022-09-27T06:13:59.428Z,16.00
2022-09-27T06:16:46.067Z,15.90
2022-09-27T06:19:32.070Z,15.80
2022-09-27T06:22:17.939Z,16.00
2022-09-27T06:25:15.668Z,16.00
2022-09-27T06:28:22.269Z,16.00
2022-09-27T06:31:12.341Z,16.10
2022-09-27T06:34:05.654Z,16.10
2022-09-27T06:36:51.772Z,16.00
2022-09-27T06:39:38.173Z,16.00
2022-09-27T06:43:03.052Z,16.00
2022-09-27T06:46:11.189Z,16.00
2022-09-27T06:49:09.001Z,16.00
2022-09-27T06:51:55.457Z,16.00
2022-09-27T06:54:41.678Z,16.00
2022-09-27T06:57:46.573Z,16.00
2022-09-27T07:00:32.284Z,16.00
2022-09-27T07:03:43.273Z,16.00
2022-09-27T07:06:37.709Z,16.00
2022-09-27T07:09:42.492Z,16.00
2022-09-27T07:12:28.285Z,16.00
2022-09-27T07:15:14.770Z,16.00
2022-09-27T07:18:00.566Z,16.10
2022-09-27T07:20:48.004Z,16.10
2022-09-27T07:23:36.185Z,16.10
2022-09-27T07:26:23.136Z,16.10
2022-09-27T07:29:08.794Z,16.20
2022-09-27T07:31:54.899Z,16.20
2022-09-27T07:34:40.332Z,16.20
2022-09-27T07:37:26.322Z,16.20
2022-09-27T07:40:12.022Z,16.20
2022-09-27T07:42:59.565Z,16.20
2022-09-27T07:45:46.469Z,16.20
2022-09-27T07:48:55.280Z,16.20
2022-09-27T07:51:52.838Z,16.10
2022-09-27T07:54:57.430Z,16.20
2022-09-27T07:58:11.533Z,16.20
2022-09-27T08:00:59.883Z,16.20
2022-09-27T08:03:45.290Z,16.20
2022-09-27T08:06:31.438Z,16.20
2022-09-27T08:09:17.601Z,16.20
2022-09-27T08:12:04.719Z,16.20
2022-09-27T08:14:52.126Z,16.30
2022-09-27T08:17:37.849Z,16.30
2022-09-27T08:20:27.115Z,16.40
2022-09-27T08:23:24.734Z,16.40
2022-09-27T08:26:23.730Z,16.50
2022-09-27T08:29:15.433Z,16.70
2022-09-27T08:32:09.344Z,16.90
2022-09-27T08:34:55.257Z,17.10
2022-09-27T08:37:41.893Z,17.20
2022-09-27T08:40:51.353Z,17.30
2022-09-27T08:43:46.468Z,17.40
2022-09-27T08:46:44.776Z,17.50
2022-09-27T08:49:40.078Z,17.50
2022-09-27T08:52:31.279Z,17.60
2022-09-27T08:55:25.994Z,17.70
2022-09-27T08:58:38.214Z,17.70
2022-09-27T09:01:30.932Z,17.70
2022-09-27T09:04:45.905Z,17.70
2022-09-27T09:08:14.972Z,17.70
2022-09-27T09:11:35.506Z,17.80
2022-09-27T09:14:26.343Z,17.80
2022-09-27T09:17:30.470Z,17.80
2022-09-27T09:20:47.099Z,17.90
2022-09-27T09:24:09.370Z,17.90
2022-09-27T09:26:59.609Z,17.90
2022-09-27T09:30:12.159Z,17.90
2022-09-27T09:33:16.559Z,17.90
2022-09-27T09:36:08.978Z,18.00
2022-09-27T09:39:04.303Z,18.00
2022-09-27T09:42:11.455Z,18.00
2022-09-27T09:45:07.483Z,18.00
2022-09-27T09:48:09.231Z,18.10
2022-09-27T09:50:59.727Z,18.10
2022-09-27T09:54:01.113Z,18.10
2022-09-27T09:57:16.898Z,18.20
2022-09-27T10:00:07.821Z,18.20
2022-09-27T10:03:03.353Z,18.20
2022-09-27T10:05:51.283Z,18.20
2022-09-27T10:08:37.182Z,18.30
2022-09-27T10:11:46.811Z,18.30
2022-09-27T10:14:42.422Z,18.30
2022-09-27T10:17:37.113Z,18.40
2022-09-27T10:20:35.587Z,18.50
2022-09-27T10:23:25.238Z,18.50
2022-09-27T10:26:39.440Z,18.60
2022-09-27T10:29:37.236Z,18.50
2022-09-27T10:32:33.102Z,18.50
2022-09-27T10:35:41.773Z,18.40
2022-09-27T10:38:35.757Z,18.40
2022-09-27T10:41:41.628Z,18.40
2022-09-27T10:44:32.813Z,18.40
2022-09-27T10:47:33.093Z,18.40
2022-09-27T10:50:58.283Z,18.40
2022-09-27T10:53:54.086Z,18.40
2022-09-27T10:56:58.119Z,18.40
2022-09-27T10:59:47.042Z,18.40
2022-09-27T11:02:37.821Z,18.40
2022-09-27T11:05:32.006Z,18.40
2022-09-27T11:08:24.250Z,18.50
2022-09-27T11:11:26.272Z,18.50
2022-09-27T11:14:19.939Z,18.60
2022-09-27T11:17:11.667Z,18.70
2022-09-27T11:20:19.429Z,18.70
2022-09-27T11:23:31.850Z,18.70
2022-09-27T11:26:36.657Z,18.80
2022-09-27T11:29:32.282Z,18.80
2022-09-27T11:32:55.196Z,18.70
2022-09-27T11:35:42.271Z,18.80
2022-09-27T11:38:52.650Z,18.80
2022-09-27T11:41:59.312Z,18.80
2022-09-27T11:45:32.016Z,18.90
2022-09-27T11:48:19.284Z,18.90
2022-09-27T11:51:23.340Z,18.90
2022-09-27T11:54:15.812Z,18.90
2022-09-27T11:57:31.644Z,18.90
2022-09-27T12:00:25.072Z,18.90
2022-09-27T12:04:02.061Z,18.90
2022-09-27T12:07:05.835Z,18.90
2022-09-27T12:09:56.982Z,18.90
2022-09-27T12:12:49.980Z,18.90
2022-09-27T12:15:42.190Z,18.90
2022-09-27T12:18:41.066Z,18.90
2022-09-27T12:22:04.140Z,19.00
2022-09-27T12:24:51.110Z,19.10
2022-09-27T12:28:39.370Z,19.20
2022-09-27T12:31:51.867Z,19.30
2022-09-27T12:35:11.631Z,19.40
2022-09-27T12:38:16.077Z,19.50
2022-09-27T12:41:07.509Z,19.60
2022-09-27T12:44:01.327Z,19.60
2022-09-27T12:47:10.654Z,19.60
2022-09-27T12:50:10.937Z,19.60
2022-09-27T12:53:07.494Z,19.70
2022-09-27T12:56:06.966Z,19.60
2022-09-27T12:59:17.868Z,19.60
2022-09-27T13:03:14.612Z,19.50
2022-09-27T13:05:56.166Z,19.40
2022-09-27T13:08:44.624Z,19.50
2022-09-27T13:12:16.275Z,19.60
2022-09-27T13:15:07.584Z,19.80
2022-09-27T13:17:57.412Z,19.90
2022-09-27T13:20:57.640Z,19.90
2022-09-27T13:24:03.750Z,19.80
2022-09-27T13:27:01.042Z,19.70
2022-09-27T13:29:47.408Z,19.70
2022-09-27T13:32:32.825Z,19.60
2022-09-27T13:35:26.438Z,19.60
2022-09-27T13:38:24.100Z,19.50
2022-09-27T13:41:19.605Z,19.40
2022-09-27T13:44:15.424Z,19.30
2022-09-27T13:47:30.557Z,19.30
2022-09-27T13:50:49.347Z,19.30
2022-09-27T13:53:39.088Z,19.20
2022-09-27T13:56:36.941Z,19.20
2022-09-27T13:59:30.150Z,19.20
2022-09-27T14:03:50.825Z,19.20
2022-09-27T14:06:45.146Z,19.20
2022-09-27T14:09:33.966Z,19.20
2022-09-27T14:12:33.816Z,19.10
2022-09-27T14:15:31.024Z,19.20
2022-09-27T14:18:19.985Z,19.20
2022-09-27T14:21:39.211Z,19.20
2022-09-27T14:24:58.244Z,19.20
2022-09-27T14:27:54.261Z,19.20
2022-09-27T14:31:17.571Z,19.20
2022-09-27T14:34:23.731Z,19.20
2022-09-27T14:37:26.004Z,19.30
2022-09-27T14:40:22.540Z,19.30
2022-09-27T14:43:16.013Z,19.20
2022-09-27T14:46:09.651Z,19.20
2022-09-27T14:48:56.400Z,19.10
2022-09-27T14:51:42.533Z,19.10
2022-09-27T14:54:31.357Z,19.00
2022-09-27T14:57:17.737Z,19.00
2022-09-27T15:00:18.125Z,19.00
2022-09-27T15:03:09.149Z,19.00
2022-09-27T15:05:55.572Z,19.00
2022-09-27T15:08:41.716Z,19.00
2022-09-27T15:11:29.892Z,19.00
2022-09-27T15:14:19.854Z,18.90
2022-09-27T15:17:05.985Z,18.90
2022-09-27T15:20:24.612Z,18.90
2022-09-27T15:23:30.639Z,19.00
2022-09-27T15:26:35.916Z,19.00
2022-09-27T15:29:24.574Z,19.00
2022-09-27T15:32:17.347Z,19.00
2022-09-27T15:35:08.572Z,19.00
2022-09-27T15:38:32.558Z,19.00
2022-09-27T15:41:21.170Z,19.00
2022-09-27T15:44:47.045Z,19.00
2022-09-27T15:47:32.515Z,19.00
2022-09-27T15:50:20.748Z,19.00
2022-09-27T15:53:07.194Z,18.90
2022-09-27T15:55:52.645Z,18.90
2022-09-27T15:58:40.304Z,18.90
2022-09-27T16:01:26.209Z,18.90
2022-09-27T16:04:11.865Z,18.90
2022-09-27T16:07:01.172Z,18.90
2022-09-27T16:09:49.357Z,18.90
2022-09-27T16:12:34.818Z,18.90
2022-09-27T16:15:20.396Z,18.90
2022-09-27T16:18:06.109Z,18.90
2022-09-27T16:20:51.824Z,18.90
2022-09-27T16:23:37.386Z,18.90
2022-09-27T16:26:22.850Z,18.90
2022-09-27T16:29:13.702Z,18.90
2022-09-27T16:31:59.591Z,18.90
2022-09-27T16:34:45.289Z,18.90
2022-09-27T16:37:30.829Z,18.90
2022-09-27T16:40:19.772Z,19.00
2022-09-27T16:43:07.380Z,19.00
2022-09-27T16:45:53.670Z,19.00
2022-09-27T16:48:40.047Z,19.00
2022-09-27T16:51:43.918Z,19.00
2022-09-27T16:54:29.783Z,19.00
2022-09-27T16:57:15.620Z,18.90
2022-09-27T17:00:06.717Z,18.90
2022-09-27T17:02:53.119Z,18.90
2022-09-27T17:05:38.759Z,18.90
2022-09-27T17:08:26.616Z,18.70
2022-09-27T17:11:14.857Z,18.80
2022-09-27T17:14:00.416Z,18.80
2022-09-27T17:16:47.695Z,18.80
2022-09-27T17:19:33.912Z,18.90
2022-09-27T17:22:19.649Z,18.80
2022-09-27T17:25:05.588Z,18.80
2022-09-27T17:27:51.004Z,18.80
2022-09-27T17:30:36.502Z,18.80
2022-09-27T17:33:22.635Z,18.90
2022-09-27T17:36:09.001Z,18.90
2022-09-27T17:38:54.556Z,18.90
2022-09-27T17:41:40.319Z,18.90
2022-09-27T17:44:27.150Z,18.90
2022-09-27T17:47:31.991Z,19.00
2022-09-27T17:50:27.470Z,19.00
2022-09-27T17:53:13.368Z,19.00
2022-09-27T17:56:02.305Z,19.00
2022-09-27T17:58:55.760Z,19.00
2022-09-27T18:01:42.302Z,19.00
2022-09-27T18:04:28.516Z,19.00
2022-09-27T18:07:14.386Z,19.00
2022-09-27T18:10:00.439Z,19.00
2022-09-27T18:12:46.026Z,19.00
2022-09-27T18:15:31.542Z,19.00
2022-09-27T18:18:17.354Z,19.00
2022-09-27T18:21:04.675Z,19.00
2022-09-27T18:23:54.332Z,19.00
2022-09-27T18:26:40.757Z,19.00
2022-09-27T18:29:28.818Z,19.00
2022-09-27T18:32:14.571Z,19.00
2022-09-27T18:35:00.229Z,19.00
2022-09-27T18:37:47.867Z,19.00
2022-09-27T18:40:55.160Z,18.90
2022-09-27T18:43:41.804Z,19.00
2022-09-27T18:46:37.486Z,19.00
2022-09-27T18:49:26.896Z,18.90
2022-09-27T18:52:14.477Z,18.90
2022-09-27T18:55:00.299Z,18.90
2022-09-27T18:57:48.585Z,18.90
2022-09-27T19:00:34.818Z,18.90
2022-09-27T19:03:20.663Z,18.90
2022-09-27T19:06:10.337Z,18.90
2022-09-27T19:08:58.790Z,18.90
2022-09-27T19:11:44.320Z,18.90
2022-09-27T19:14:30.276Z,18.80
2022-09-27T19:17:16.107Z,18.60
2022-09-27T19:20:01.788Z,18.50
2022-09-27T19:22:47.612Z,18.40
2022-09-27T19:25:33.174Z,18.40
2022-09-27T19:28:19.396Z,18.30
2022-09-27T19:31:11.929Z,18.20
2022-09-27T19:34:00.513Z,18.20
2022-09-27T19:36:46.622Z,18.20
2022-09-27T19:39:32.047Z,18.10
2022-09-27T19:42:17.784Z,18.10
2022-09-27T19:45:05.793Z,18.10
2022-09-27T19:47:55.730Z,18.00
2022-09-27T19:50:41.304Z,18.00
2022-09-27T19:53:31.866Z,17.90
2022-09-27T19:56:18.660Z,18.00
2022-09-27T19:59:07.279Z,17.90
2022-09-27T20:01:52.942Z,17.90
2022-09-27T20:04:39.029Z,17.90
2022-09-27T20:07:24.588Z,17.90
2022-09-27T20:10:10.354Z,17.90
2022-09-27T20:12:55.874Z,17.90
2022-09-27T20:15:41.698Z,17.90
2022-09-27T20:18:27.400Z,17.80
2022-09-27T20:21:14.400Z,17.80
2022-09-27T20:24:02.115Z,17.80
2022-09-27T20:26:48.356Z,17.80
2022-09-27T20:29:34.288Z,17.80
2022-09-27T20:32:27.723Z,17.80
2022-09-27T20:35:13.605Z,17.80
2022-09-27T20:37:59.096Z,17.70
2022-09-27T20:40:51.914Z,17.70
2022-09-27T20:43:38.748Z,17.70
2022-09-27T20:46:25.228Z,17.70
2022-09-27T20:49:18.837Z,17.70
2022-09-27T20:52:04.808Z,17.70
2022-09-27T20:54:50.200Z,17.70
2022-09-27T20:57:56.349Z,17.70
2022-09-27T21:00:41.847Z,17.70
2022-09-27T21:03:27.493Z,17.70
2022-09-27T21:06:13.747Z,17.60
2022-09-27T21:09:00.605Z,17.60
2022-09-27T21:11:48.432Z,17.60
2022-09-27T21:14:34.196Z,17.60
2022-09-27T21:17:19.955Z,17.60
2022-09-27T21:20:05.608Z,17.60
2022-09-27T21:22:51.148Z,17.60
2022-09-27T21:25:36.620Z,17.30
2022-09-27T21:28:22.105Z,17.00
2022-09-27T21:31:10.181Z,16.60
2022-09-27T21:33:59.158Z,16.20
2022-09-27T21:36:44.599Z,15.80
2022-09-27T21:39:30.518Z,15.60
2022-09-27T21:42:16.227Z,15.40
2022-09-27T21:45:01.688Z,15.20
2022-09-27T21:47:47.258Z,15.10
2022-09-27T21:50:32.668Z,14.90
2022-09-27T21:53:18.268Z,14.80
2022-09-27T21:56:05.200Z,14.60
2022-09-27T21:58:50.829Z,14.50
2022-09-27T22:01:37.079Z,14.50
2022-09-27T22:04:22.909Z,14.30
2022-09-27T22:07:08.698Z,14.30
2022-09-27T22:09:54.228Z,14.30
2022-09-27T22:12:39.744Z,14.20
2022-09-27T22:15:25.260Z,14.10
2022-09-27T22:18:10.748Z,14.10
2022-09-27T22:21:06.469Z,14.00
2022-09-27T22:24:07.514Z,14.00
2022-09-27T22:26:54.179Z,14.00
2022-09-27T22:29:39.871Z,14.00
2022-09-27T22:32:25.587Z,14.00
2022-09-27T22:35:11.752Z,13.80
2022-09-27T22:37:57.406Z,13.90
2022-09-27T22:40:42.839Z,13.90
2022-09-27T22:43:29.419Z,13.80
2022-09-27T22:46:15.427Z,13.70
2022-09-27T22:49:01.443Z,13.70
2022-09-27T22:51:47.184Z,13.70
2022-09-27T22:54:32.644Z,13.70
2022-09-27T22:57:18.298Z,13.70
2022-09-27T23:00:05.152Z,13.60
2022-09-27T23:02:58.082Z,13.60
2022-09-27T23:05:44.499Z,13.60
2022-09-27T23:08:35.296Z,13.60
2022-09-27T23:11:22.876Z,13.60
2022-09-27T23:14:09.164Z,13.60
2022-09-27T23:16:54.877Z,13.50
2022-09-27T23:19:40.944Z,13.40
2022-09-27T23:22:26.375Z,13.50
2022-09-27T23:25:12.004Z,13.50
2022-09-27T23:27:57.456Z,13.50
2022-09-27T23:30:42.955Z,13.50
2022-09-27T23:33:28.324Z,13.40
2022-09-27T23:36:16.862Z,13.40
2022-09-27T23:39:02.465Z,13.40
2022-09-27T23:41:48.215Z,13.40
2022-09-27T23:44:33.632Z,13.40
2022-09-27T23:47:19.200Z,13.40
2022-09-27T23:50:05.081Z,13.40
2022-09-27T23:52:50.857Z,13.40
2022-09-27T23:55:36.613Z,13.40
2022-09-27T23:58:22.400Z,13.30
